Time;durP1;ratioP1;P1;durP2;ratioP2;P2;SDS_P1;SDS_P2;PMS_P1;PMS_P2;Temp;Humidity;BMP_temperature;BMP_pressure;BME280_temperature;BME280_humidity;BME280_pressure;Samples;Min_cycle;Max_cycle;Signal;HPM_P1;HPM_P2
2021/06/08 00:02:17;;;;;;;;;;;;;;;18.60;39.76;101733.00;4976796;28;98523;-74
2021/06/08 00:04:45;;;;;;;;;;;;;;;18.51;39.86;101735.66;4987347;28;97771;-75
2021/06/08 00:07:12;;;;;;;;;;;;;;;18.49;40.22;101731.13;4981183;28;98218;-74
2021/06/08 00:09:39;;;;;;;;;;;;;;;18.45;39.87;101730.22;5001825;28;97362;-74
2021/06/08 00:12:07;;;;;;;;;;;;;;;18.41;39.79;101728.41;5001636;28;98035;-73
2021/06/08 00:14:34;;;;;;;;;;;;;;;18.39;39.84;101734.69;4986659;28;97941;-73
2021/06/08 00:17:01;;;;;;;;;;;;;;;18.33;40.47;101729.28;4985726;28;97257;-74
2021/06/08 00:19:30;;;;;;;;;;;;;;;18.27;40.40;101724.78;5002605;28;97129;-74
2021/06/08 00:21:57;;;;;;;32.15;22.85;;;;;;;18.25;39.32;101726.56;4987718;28;97329;-75
2021/06/08 00:24:24;;;;;;;26.88;18.73;;;;;;;18.29;38.97;101731.06;4971928;28;99278;-74
2021/06/08 00:26:52;;;;;;;24.35;17.17;;;;;;;18.26;39.05;101728.34;4988902;28;97658;-75
2021/06/08 00:29:20;;;;;;;26.90;17.20;;;;;;;18.23;39.17;101724.72;4989626;28;98197;-75
2021/06/08 00:31:47;;;;;;;28.88;17.73;;;;;;;18.20;38.88;101727.41;4983780;28;98069;-74
2021/06/08 00:34:15;;;;;;;25.63;18.58;;;;;;;18.22;38.99;101725.63;4986522;28;98065;-75
2021/06/08 00:36:43;;;;;;;34.75;23.88;;;;;;;18.20;40.22;101724.72;4980815;28;97188;-75
2021/06/08 00:39:11;;;;;;;35.75;25.25;;;;;;;18.18;40.65;101722.03;4986172;28;97713;-74
2021/06/08 00:41:40;;;;;;;28.85;18.50;;;;;;;18.16;40.31;101720.22;4988235;28;98671;-75
2021/06/08 00:44:11;;;;;;;26.90;18.05;;;;;;;18.12;40.37;101721.09;4989174;28;97577;-74
2021/06/08 00:46:39;;;;;;;23.50;17.42;;;;;;;18.08;39.88;101721.94;4988687;28;96909;-74
2021/06/08 00:49:07;;;;;;;25.83;18.00;;;;;;;18.14;39.82;101727.38;4987471;28;97032;-74
2021/06/08 00:51:34;;;;;;;25.80;17.45;;;;;;;18.15;39.78;101721.13;4989629;28;97886;-75
2021/06/08 00:54:06;;;;;;;31.20;18.23;;;;;;;18.12;40.03;101711.22;4987622;28;100467;-74
2021/06/08 00:56:34;;;;;;;27.00;18.42;;;;;;;18.10;39.71;101704.00;4985663;28;97008;-74
2021/06/08 00:59:01;;;;;;;29.60;18.65;;;;;;;18.10;39.66;101704.00;4987667;28;96824;-74
2021/06/08 01:01:29;;;;;;;29.35;19.13;;;;;;;18.15;39.71;101702.25;4988519;28;97893;-74
2021/06/08 01:03:56;;;;;;;28.60;18.90;;;;;;;18.20;39.38;101700.47;4987116;28;99255;-75
2021/06/08 01:06:24;;;;;;;31.83;20.15;;;;;;;18.17;39.71;101700.47;4989368;28;96744;-75
2021/06/08 01:08:51;;;;;;;33.58;19.77;;;;;;;18.19;39.54;101693.28;5001740;22;97242;-73
2021/06/08 01:11:20;;;;;;;29.42;19.60;;;;;;;18.20;39.49;101697.78;4994916;28;102490;-72
2021/06/08 01:13:47;;;;;;;31.50;18.38;;;;;;;18.23;39.41;101692.41;5004049;28;97382;-74
2021/06/08 01:16:15;;;;;;;26.70;18.48;;;;;;;18.26;39.61;101701.38;5003738;28;96831;-72
2021/06/08 01:18:42;;;;;;;28.10;19.45;;;;;;;18.31;39.27;101704.13;5016877;28;97202;-72
2021/06/08 01:21:12;;;;;;;37.28;27.10;;;;;;;18.33;39.83;101694.25;4993463;28;100577;-73
2021/06/08 01:23:41;;;;;;;33.42;22.38;;;;;;;18.42;39.80;101702.38;4997398;28;99280;-73
2021/06/08 01:26:08;;;;;;;29.15;19.90;;;;;;;18.46;39.68;101693.41;5002122;28;96763;-73
2021/06/08 01:28:36;;;;;;;30.33;20.35;;;;;;;18.41;39.59;101690.69;4998406;28;96790;-72
2021/06/08 01:31:07;;;;;;;42.75;29.27;;;;;;;18.37;40.52;101696.94;4969333;28;100489;-73
2021/06/08 01:33:39;;;;;;;40.42;28.83;;;;;;;18.31;40.72;101687.94;4994619;28;97594;-73
2021/06/08 01:36:07;;;;;;;41.92;29.40;;;;;;;18.32;40.83;101697.81;4981069;28;96865;-73
2021/06/08 01:38:36;;;;;;;42.83;29.88;;;;;;;18.32;41.05;101697.81;4980972;28;96999;-73
2021/06/08 01:41:03;;;;;;;40.60;29.85;;;;;;;18.28;41.06;101696.00;4998357;28;97848;-73
2021/06/08 01:43:31;;;;;;;41.92;29.98;;;;;;;18.21;41.50;101689.69;4980965;28;100609;-73
2021/06/08 01:45:58;;;;;;;43.35;30.35;;;;;;;18.15;41.53;101696.88;4993505;28;97194;-72
2021/06/08 01:48:26;;;;;;;38.00;27.40;;;;;;;18.14;41.61;101690.56;4997173;28;97242;-73
2021/06/08 01:50:58;;;;;;;37.92;28.10;;;;;;;18.16;41.25;101688.78;4996155;28;97219;-71
2021/06/08 01:53:30;;;;;;;43.13;29.88;;;;;;;18.19;41.36;101699.56;4998733;28;97597;-72
2021/06/08 01:56:01;;;;;;;42.80;31.10;;;;;;;18.20;41.35;101689.69;4991470;28;96777;-72
2021/06/08 01:58:34;;;;;;;45.67;31.63;;;;;;;18.19;41.29;101691.47;4992596;28;96807;-72
2021/06/08 02:01:07;;;;;;;41.58;30.50;;;;;;;18.16;41.28;101687.88;4991951;28;98535;-73
2021/06/08 02:03:38;;;;;;;43.63;32.13;;;;;;;18.18;41.44;101688.78;4993610;28;98855;-73
2021/06/08 02:06:13;;;;;;;41.00;30.33;;;;;;;18.20;41.57;101692.41;4996981;28;96871;-72
2021/06/08 02:08:44;;;;;;;45.83;31.85;;;;;;;18.22;41.30;101687.91;4983854;28;96834;-74
2021/06/08 02:11:14;;;;;;;43.20;31.48;;;;;;;18.26;41.44;101684.34;4995001;28;100501;-73
2021/06/08 02:13:47;;;;;;;42.63;31.47;;;;;;;18.28;41.33;101688.81;4994823;28;100543;-74
2021/06/08 02:16:19;;;;;;;43.88;31.92;;;;;;;18.26;41.15;101677.13;4991881;28;97225;-72
2021/06/08 02:18:48;;;;;;;42.70;31.08;;;;;;;18.28;41.43;101690.59;4998199;28;97003;-73
2021/06/08 02:21:16;;;;;;;41.80;31.13;;;;;;;18.27;41.49;101686.13;4999250;28;97712;-72
2021/06/08 02:23:45;;;;;;;43.88;32.30;;;;;;;18.26;41.13;101685.22;4977324;28;99875;-72
2021/06/08 02:26:14;;;;;;;41.53;31.63;;;;;;;18.34;41.39;101691.56;5001508;28;96737;-71
2021/06/08 02:28:42;;;;;;;42.13;32.10;;;;;;;18.45;41.28;101691.59;4977110;28;97463;-73
2021/06/08 02:31:10;;;;;;;43.88;32.03;;;;;;;18.52;41.00;101688.00;4983065;28;100957;-73
2021/06/08 02:33:39;;;;;;;42.55;31.67;;;;;;;18.48;40.84;101696.97;5008235;28;99412;-73
2021/06/08 02:36:07;;;;;;;44.22;32.65;;;;;;;18.49;41.01;101693.41;4992881;28;97217;-72
2021/06/08 02:38:36;;;;;;;38.58;30.02;;;;;;;18.48;40.86;101688.88;4991131;28;97175;-71
2021/06/08 02:41:04;;;;;;;39.78;29.73;;;;;;;18.53;40.89;101687.13;4994011;28;100586;-72
2021/06/08 02:43:35;;;;;;;42.50;31.73;;;;;;;18.57;40.92;101689.81;4995746;28;97737;-71
2021/06/08 02:46:03;;;;;;;39.97;30.80;;;;;;;18.62;40.66;101689.84;4994385;28;96947;-72
2021/06/08 02:48:31;;;;;;;45.47;33.33;;;;;;;18.55;40.96;101688.91;4992971;28;96858;-72
2021/06/08 02:50:59;;;;;;;41.72;32.13;;;;;;;18.58;40.80;101691.63;4973204;28;100778;-73
2021/06/08 02:53:28;;;;;;;44.83;31.67;;;;;;;18.62;40.62;101693.41;4995239;28;99294;-73
2021/06/08 02:55:55;;;;;;;40.43;30.87;;;;;;;18.66;40.83;101691.66;4993233;28;96998;-73
2021/06/08 02:58:23;;;;;;;41.60;31.27;;;;;;;18.74;40.29;101700.69;4994404;28;96842;-73
2021/06/08 03:00:52;;;;;;;44.25;33.20;;;;;;;18.75;40.61;101702.50;4994298;28;98196;-73
2021/06/08 03:03:23;;;;;;;44.50;32.40;;;;;;;18.73;40.42;101699.78;5001416;28;97938;-73
2021/06/08 03:05:56;;;;;;;47.77;33.73;;;;;;;18.72;40.47;101692.59;4994885;28;96854;-73
2021/06/08 03:08:27;;;;;;;48.40;34.33;;;;;;;18.75;40.37;101697.09;4989493;28;97451;-73
2021/06/08 03:10:55;;;;;;;50.67;35.20;;;;;;;18.73;40.38;101696.19;4995483;28;97991;-73
2021/06/08 03:13:23;;;;;;;48.95;35.05;;;;;;;18.73;40.49;101694.38;4989111;28;97052;-73
2021/06/08 03:15:56;;;;;;;50.50;33.53;;;;;;;18.75;40.54;101697.09;4992092;28;96948;-73
2021/06/08 03:18:27;;;;;;;54.28;36.78;;;;;;;18.80;40.74;101695.31;4995362;28;96843;-72
2021/06/08 03:20:57;;;;;;;59.25;38.05;;;;;;;18.81;40.38;101703.41;5003065;28;97643;-73
2021/06/08 03:23:30;;;;;;;56.63;38.53;;;;;;;18.83;40.44;101701.59;4985978;28;98704;-72
2021/06/08 03:25:59;;;;;;;56.78;37.58;;;;;;;18.79;40.80;101697.09;5003835;28;96971;-71
2021/06/08 03:28:28;;;;;;;55.60;36.27;;;;;;;18.85;40.32;101699.81;4991308;28;97568;-73
2021/06/08 03:30:57;;;;;;;55.87;36.87;;;;;;;18.92;40.26;101706.09;4993231;28;97838;-73
2021/06/08 03:33:26;;;;;;;61.50;40.47;;;;;;;18.87;40.65;101706.13;4988183;28;97654;-73
2021/06/08 03:35:54;;;;;;;57.20;39.53;;;;;;;18.90;40.63;101713.28;4986270;28;96648;-73
2021/06/08 03:38:23;;;;;;;59.17;40.57;;;;;;;18.90;40.42;101716.91;4994740;28;97100;-73
2021/06/08 03:40:52;;;;;;;62.85;40.65;;;;;;;18.93;40.29;101719.59;4992796;28;98729;-74
2021/06/08 03:43:19;;;;;;;68.20;43.33;;;;;;;18.90;40.47;101718.69;4974788;28;99189;-73
2021/06/08 03:46:12;;;;;;;63.97;41.17;;;;;;;18.88;40.48;101724.09;4992194;28;97044;-74
2021/06/08 03:48:40;;;;;;;62.90;41.08;;;;;;;18.86;40.55;101722.31;5003477;28;97052;-73
2021/06/08 03:51:07;;;;;;;64.68;42.15;;;;;;;18.86;40.57;101717.78;4991250;28;97908;-72
2021/06/08 03:53:38;;;;;;;63.65;42.45;;;;;;;18.83;40.85;101723.19;4988080;28;97861;-73
2021/06/08 03:56:05;;;;;;;62.95;41.38;;;;;;;18.85;40.69;101723.19;4990958;28;96870;-72
2021/06/08 03:58:33;;;;;;;66.43;43.78;;;;;;;18.90;40.59;101727.69;4988511;28;96923;-73
2021/06/08 04:01:01;;;;;;;68.50;43.10;;;;;;;18.94;40.41;101725.91;4980230;28;99347;-73
2021/06/08 04:03:31;;;;;;;73.15;46.50;;;;;;;18.91;40.71;101734.00;4978859;28;99120;-70
2021/06/08 04:05:58;;;;;;;87.28;57.65;;;;;;;18.91;40.75;101728.59;4976132;28;97268;-70
2021/06/08 04:08:26;;;;;;;127.72;79.13;;;;;;;18.95;40.72;101733.97;4995504;28;97165;-71
2021/06/08 04:10:54;;;;;;;66.78;43.83;;;;;;;19.03;40.37;101725.91;4975583;28;100384;-72
2021/06/08 04:13:22;;;;;;;67.03;43.53;;;;;;;19.06;40.29;101723.22;4999110;28;98968;-71
2021/06/08 04:15:51;;;;;;;63.78;42.90;;;;;;;19.03;40.61;101720.50;4995932;28;97036;-71
2021/06/08 04:18:20;;;;;;;62.90;43.67;;;;;;;19.02;40.52;101725.00;4991821;28;98296;-72
2021/06/08 04:20:53;;;;;;;77.47;49.78;;;;;;;19.09;40.19;101730.41;5001221;28;97940;-71
2021/06/08 04:23:24;;;;;;;66.40;46.03;;;;;;;19.14;40.24;101726.81;4991286;28;99184;-71
2021/06/08 04:25:51;;;;;;;61.07;41.57;;;;;;;19.20;40.17;101731.31;4992973;28;96831;-70
2021/06/08 04:28:23;;;;;;;57.17;39.85;;;;;;;19.22;40.26;101725.03;4975598;28;97104;-71
2021/06/08 04:30:52;;;;;;;66.88;43.47;;;;;;;19.25;39.83;101726.81;4996755;28;99330;-70
2021/06/08 04:33:23;;;;;;;67.95;43.55;;;;;;;19.27;40.12;101725.94;4982808;28;98922;-71
2021/06/08 04:35:51;;;;;;;115.22;75.15;;;;;;;19.31;40.10;101722.38;4982228;28;97099;-70
2021/06/08 04:38:20;;;;;;;56.78;39.53;;;;;;;19.32;40.03;101728.66;4990818;28;96839;-71
2021/06/08 04:40:49;;;;;;;61.92;40.90;;;;;;;19.36;39.74;101725.97;4988226;28;97652;-71
2021/06/08 04:43:20;;;;;;;65.20;43.63;;;;;;;19.31;39.69;101716.97;4982672;28;99385;-71
2021/06/08 04:45:48;;;;;;;69.72;46.53;;;;;;;19.34;39.94;101727.75;4970336;28;96928;-71
2021/06/08 04:48:15;;;;;;;80.20;48.13;;;;;;;19.27;40.14;101725.94;4980892;28;97874;-72
2021/06/08 04:50:42;;;;;;;73.03;46.60;;;;;;;19.19;39.89;101719.63;4994261;28;97744;-71
2021/06/08 04:53:11;;;;;;;70.15;45.38;;;;;;;19.19;39.85;101721.44;4990090;28;101109;-71
2021/06/08 04:55:39;;;;;;;109.38;67.20;;;;;;;19.14;40.12;101725.91;4981823;28;97174;-72
2021/06/08 04:58:06;;;;;;;75.13;48.77;;;;;;;19.05;40.11;101721.41;4980854;28;97039;-70
2021/06/08 05:00:37;;;;;;;75.28;46.30;;;;;;;19.00;40.34;101731.31;4986386;28;99769;-71
2021/06/08 05:03:07;;;;;;;68.60;45.08;;;;;;;18.89;40.51;101738.47;4997547;28;97140;-71
2021/06/08 05:05:36;;;;;;;71.10;45.80;;;;;;;18.90;40.29;101733.09;4994921;28;96852;-71
2021/06/08 05:08:06;;;;;;;67.93;44.45;;;;;;;18.96;40.43;101734.88;4999342;28;97013;-72
2021/06/08 05:10:38;;;;;;;68.45;45.72;;;;;;;18.99;40.42;101737.59;4969108;28;100796;-71
2021/06/08 05:13:06;;;;;;;114.88;73.15;;;;;;;19.03;40.53;101742.09;4991922;28;98734;-72
2021/06/08 05:15:33;;;;;;;79.82;51.03;;;;;;;19.04;40.61;101750.19;4979823;28;96936;-71
2021/06/08 05:18:02;;;;;;;69.22;43.72;;;;;;;19.06;40.45;101750.22;4996430;28;97238;-72
2021/06/08 05:20:29;;;;;;;61.03;40.78;;;;;;;19.10;40.73;101749.28;4992766;28;98592;-71
2021/06/08 05:22:57;;;;;;;64.88;42.78;;;;;;;19.05;40.34;101745.69;4989530;28;99179;-71
2021/06/08 05:25:25;;;;;;;63.35;41.50;;;;;;;19.03;40.32;101751.09;4997866;28;97066;-70
2021/06/08 05:27:54;;;;;;;59.03;40.15;;;;;;;19.02;40.58;101748.41;4969460;28;97574;-70
2021/06/08 05:30:22;;;;;;;61.13;41.42;;;;;;;19.02;40.45;101753.78;4978350;28;98558;-70
2021/06/08 05:32:49;;;;;;;58.43;39.80;;;;;;;19.00;40.70;101752.88;4993864;28;99615;-71
2021/06/08 05:35:25;;;;;;;56.17;39.03;;;;;;;19.04;40.36;101752.88;4994935;28;97051;-71
2021/06/08 05:37:52;;;;;;;56.42;38.25;;;;;;;19.05;40.41;101748.41;4989843;28;97176;-72
2021/06/08 05:40:22;;;;;;;53.60;36.63;;;;;;;19.05;40.08;101753.78;4991339;28;99438;-70
2021/06/08 05:42:49;;;;;;;51.70;35.22;;;;;;;19.10;40.40;101756.50;4991516;28;99114;-71
2021/06/08 05:45:22;;;;;;;54.33;36.47;;;;;;;19.08;40.00;101761.88;4989414;28;97544;-71
2021/06/08 05:47:49;;;;;;;51.17;35.92;;;;;;;19.07;40.36;101760.09;4999563;28;97191;-71
2021/06/08 05:50:18;;;;;;;53.50;36.92;;;;;;;19.10;40.26;101759.22;4989200;28;100492;-71
2021/06/08 05:52:45;;;;;;;53.03;35.65;;;;;;;19.15;40.04;101752.91;4989540;28;99459;-71
2021/06/08 05:55:13;;;;;;;52.97;37.03;;;;;;;19.19;39.95;101752.00;4995056;28;98740;-71
2021/06/08 05:57:45;;;;;;;50.75;35.75;;;;;;;19.18;40.21;101763.72;4999746;28;97398;-71
2021/06/08 06:00:13;;;;;;;47.58;34.00;;;;;;;19.21;40.14;101760.13;4986463;28;97624;-71
2021/06/08 06:02:42;;;;;;;51.75;35.95;;;;;;;19.23;40.09;101758.31;4995274;28;100376;-72
2021/06/08 06:05:11;;;;;;;46.55;34.05;;;;;;;19.19;40.20;101762.78;4992502;28;96762;-72
2021/06/08 06:07:39;;;;;;;49.70;34.10;;;;;;;19.23;40.19;101771.78;4981932;28;96821;-72
2021/06/08 06:10:07;;;;;;;48.25;34.63;;;;;;;19.28;39.76;101765.50;4988498;28;99711;-72
2021/06/08 06:12:36;;;;;;;47.40;33.30;;;;;;;19.36;40.02;101771.84;5000478;28;100007;-71
2021/06/08 06:15:05;;;;;;;97.45;65.40;;;;;;;19.41;40.03;101766.47;4995669;28;98130;-71
2021/06/08 06:17:35;;;;;;;74.15;50.22;;;;;;;19.50;39.56;101763.78;4984930;28;96886;-72
2021/06/08 06:20:07;;;;;;;50.65;35.53;;;;;;;19.52;39.56;101765.56;4992566;28;98731;-71
2021/06/08 06:22:35;;;;;;;51.90;35.30;;;;;;;19.48;39.47;101773.66;4976507;28;99690;-71
2021/06/08 06:25:04;;;;;;;43.70;32.58;;;;;;;19.49;39.46;101780.84;4996296;28;97123;-71
2021/06/08 06:30:27;;;;;;;54.95;36.25;;;;;;;19.57;39.19;101776.38;4992367;28;98585;-71
2021/06/08 06:32:55;;;;;;;45.10;32.80;;;;;;;19.56;39.73;101778.16;4983401;28;99265;-70
2021/06/08 06:35:23;;;;;;;46.53;34.15;;;;;;;19.54;39.67;101782.66;4992820;28;97925;-71
2021/06/08 06:37:52;;;;;;;45.30;32.42;;;;;;;19.47;39.43;101779.94;4991535;28;96815;-70
2021/06/08 06:40:25;;;;;;;40.63;31.70;;;;;;;19.44;39.71;101782.66;4987665;28;98935;-71
2021/06/08 06:42:59;;;;;;;39.83;31.02;;;;;;;19.50;39.76;101782.69;4984039;28;99267;-71
2021/06/08 06:45:27;;;;;;;45.25;33.92;;;;;;;19.54;39.76;101785.34;4969366;28;97031;-71
2021/06/08 06:48:01;;;;;;;43.50;33.33;;;;;;;19.56;39.19;101783.56;4989931;28;96981;-70
2021/06/08 06:50:30;;;;;;;41.97;31.35;;;;;;;19.60;39.25;101788.06;4967989;28;99363;-71
2021/06/08 06:52:58;;;;;;;39.97;30.45;;;;;;;19.65;39.24;101788.06;4989004;28;99412;-72
2021/06/08 06:55:27;;;;;;;67.32;48.22;;;;;;;19.72;39.14;101787.13;5000331;28;97340;-70
2021/06/08 06:57:55;;;;;;;43.00;33.57;;;;;;;19.80;39.00;101786.25;4990684;28;96897;-70
2021/06/08 07:00:23;;;;;;;41.42;31.05;;;;;;;19.80;39.13;101786.25;4985374;28;99245;-71
2021/06/08 07:02:52;;;;;;;44.45;33.40;;;;;;;19.78;38.88;101788.06;4984706;28;98962;-71
2021/06/08 07:05:22;;;;;;;45.13;33.38;;;;;;;19.81;38.89;101782.63;4988883;28;96779;-72
2021/06/08 07:07:52;;;;;;;44.60;32.87;;;;;;;19.85;39.37;101786.22;4986689;28;97207;-72
2021/06/08 07:10:22;;;;;;;51.70;35.47;;;;;;;19.82;39.14;101789.84;4986891;28;97616;-71
2021/06/08 07:12:50;;;;;;;46.10;34.50;;;;;;;19.81;38.99;101785.34;5020434;22;99460;-71
2021/06/08 07:15:22;;;;;;;42.65;32.45;;;;;;;19.84;38.93;101782.66;4983172;28;97258;-72
2021/06/08 07:17:50;;;;;;;45.65;33.63;;;;;;;19.94;38.99;101787.16;5000436;28;97055;-72
2021/06/08 07:20:18;;;;;;;39.92;26.58;;;;;;;19.96;38.92;101790.75;5003662;28;100908;-72
2021/06/08 07:22:47;;;;;;;39.67;26.25;;;;;;;19.93;38.90;101790.78;4979767;28;96909;-73
2021/06/08 07:25:18;;;;;;;39.45;24.58;;;;;;;19.96;38.74;101789.84;4971984;28;97784;-73
2021/06/08 07:27:46;;;;;;;57.78;33.78;;;;;;;19.97;38.33;101787.16;4968561;28;97042;-71
2021/06/08 07:30:15;;;;;;;46.38;28.10;;;;;;;20.07;38.10;101787.13;4971605;28;98122;-71
2021/06/08 07:32:48;;;;;;;38.17;24.27;;;;;;;20.10;38.00;101787.16;4970665;28;97670;-73
2021/06/08 07:35:21;;;;;;;38.35;24.92;;;;;;;20.15;37.89;101788.94;4980963;28;97366;-72
2021/06/08 07:37:50;;;;;;;32.33;23.52;;;;;;;20.04;38.03;101796.16;4999200;28;97547;-73
2021/06/08 07:40:23;;;;;;;32.13;22.15;;;;;;;19.94;38.43;101788.97;4969940;28;100955;-72
2021/06/08 07:42:53;;;;;;;38.55;25.15;;;;;;;19.96;38.59;101779.97;4975699;28;97757;-72
2021/06/08 07:45:23;;;;;;;38.97;26.02;;;;;;;20.05;38.11;101786.25;5000350;28;97277;-72
2021/06/08 07:47:54;;;;;;;42.05;26.25;;;;;;;20.08;37.97;101788.94;4971413;28;97707;-72
2021/06/08 07:50:27;;;;;;;36.80;23.75;;;;;;;20.16;37.96;101784.41;4964275;28;97266;-72
2021/06/08 07:52:55;;;;;;;42.35;26.77;;;;;;;20.08;38.19;101783.53;4975316;28;97638;-72
2021/06/08 07:55:23;;;;;;;38.20;25.58;;;;;;;20.11;38.37;101791.63;5006345;28;97482;-73
2021/06/08 07:57:51;;;;;;;36.38;25.60;;;;;;;20.15;38.24;101788.94;4971475;28;96814;-72
2021/06/08 08:00:18;;;;;;;38.40;25.05;;;;;;;20.17;37.84;101797.03;4968998;28;99870;-73
2021/06/08 08:02:47;;;;;;;39.80;24.98;;;;;;;20.11;37.76;101788.94;4963733;28;100457;-74
2021/06/08 08:05:19;;;;;;;35.08;24.25;;;;;;;20.11;38.05;101791.63;5001145;28;97253;-73
2021/06/08 08:07:48;;;;;;;33.65;23.60;;;;;;;20.08;38.29;101786.25;4987670;28;97051;-72
2021/06/08 08:10:21;;;;;;;32.58;22.80;;;;;;;20.01;38.25;101779.06;4971731;28;100312;-72
2021/06/08 08:12:50;;;;;;;41.63;29.10;;;;;;;20.06;38.12;101782.66;4984230;28;98638;-72
2021/06/08 08:15:19;;;;;;;37.00;25.88;;;;;;;20.10;37.85;101789.84;4981220;28;96931;-74
2021/06/08 08:17:48;;;;;;;33.38;22.92;;;;;;;20.11;37.87;101786.22;4966073;28;97248;-71
2021/06/08 08:20:30;;;;;;;37.53;24.77;;;;;;;20.14;38.50;101792.53;4964992;28;99343;-72
2021/06/08 08:22:57;;;;;;;38.90;25.88;;;;;;;20.19;38.26;101798.84;4967622;28;96996;-72
2021/06/08 08:25:25;;;;;;;32.95;23.48;;;;;;;20.23;38.09;101783.50;4970068;28;96850;-72
2021/06/08 08:27:53;;;;;;;35.78;23.73;;;;;;;20.27;37.95;101785.28;4985643;28;96796;-71
2021/06/08 08:30:21;;;;;;;36.40;25.25;;;;;;;20.28;37.86;101787.09;4967718;28;97283;-71
2021/06/08 08:32:48;;;;;;;31.88;21.80;;;;;;;20.28;38.17;101784.38;4971053;28;99230;-72
2021/06/08 08:35:16;;;;;;;29.83;20.85;;;;;;;20.29;38.21;101783.47;4965291;28;97326;-72
2021/06/08 08:37:44;;;;;;;30.70;21.65;;;;;;;20.41;38.06;101784.31;4978374;28;96869;-72
2021/06/08 08:40:11;;;;;;;29.13;21.35;;;;;;;20.46;37.59;101787.03;4983337;28;99701;-72
2021/06/08 08:42:39;;;;;;;31.80;24.20;;;;;;;20.40;37.97;101787.94;4969359;28;97620;-72
2021/06/08 08:45:09;;;;;;;32.97;23.42;;;;;;;20.43;38.03;101778.94;4969043;28;96815;-72
2021/06/08 08:47:36;;;;;;;33.25;22.92;;;;;;;20.44;37.62;101784.34;4983404;28;96916;-72
2021/06/08 08:50:05;;;;;;;32.42;23.27;;;;;;;20.46;37.88;101776.22;4967591;28;98265;-72
2021/06/08 08:52:33;;;;;;;30.75;22.23;;;;;;;20.54;37.94;101764.47;4966326;28;97408;-72
2021/06/08 08:55:01;;;;;;;31.45;22.42;;;;;;;20.59;37.82;101769.88;4960949;28;98157;-71
2021/06/08 08:57:29;;;;;;;53.65;34.55;;;;;;;20.60;37.88;101767.16;4962828;28;97242;-72
2021/06/08 09:00:02;;;;;;;33.15;23.70;;;;;;;20.61;37.60;101763.53;4951369;28;97436;-72
2021/06/08 09:02:39;;;;;;;30.27;20.90;;;;;;;20.62;37.91;101761.75;4958686;28;98491;-73
2021/06/08 09:05:07;;;;;;;23.38;18.77;;;;;;;20.66;37.72;101763.53;4961902;28;97552;-72
2021/06/08 09:07:35;;;;;;;23.05;18.13;;;;;;;20.74;37.48;101767.13;4971451;28;97384;-72
2021/06/08 09:10:03;;;;;;;26.17;20.42;;;;;;;20.80;37.18;101762.56;4986996;28;99460;-72
2021/06/08 09:12:33;;;;;;;24.92;18.50;;;;;;;20.86;37.21;101758.91;5002895;27;100620;-72
2021/06/08 09:15:01;;;;;;;21.38;17.10;;;;;;;20.89;37.07;101757.09;4973936;28;97106;-72
2021/06/08 09:17:28;;;;;;;26.90;19.52;;;;;;;20.93;37.26;101755.25;4967440;28;97414;-73
2021/06/08 09:19:57;;;;;;;28.00;20.77;;;;;;;21.01;37.18;101764.25;4976038;28;98759;-72
2021/06/08 09:22:47;;;;;;;23.98;18.60;;;;;;;21.11;36.72;101762.34;4968302;28;98078;-71
2021/06/08 09:25:46;;;;;;;21.25;16.67;;;;;;;21.18;36.65;101759.63;4970283;28;98399;-72
2021/06/08 09:28:22;;;;;;;22.80;17.50;;;;;;;21.15;36.72;101759.66;4983480;28;97623;-72
2021/06/08 09:30:54;;;;;;;41.30;31.60;;;;;;;21.03;36.47;101758.81;4973208;28;97251;-72
2021/06/08 09:33:23;;;;;;;29.67;22.80;;;;;;;21.20;36.42;101759.63;4987335;28;99912;-72
2021/06/08 09:35:56;;;;;;;25.20;18.25;;;;;;;21.31;36.15;101758.63;4963579;28;96915;-72
2021/06/08 09:38:34;;;;;;;22.50;17.45;;;;;;;21.44;36.00;101763.03;4987559;28;97943;-72
2021/06/08 09:41:17;;;;;;;22.55;17.98;;;;;;;21.41;35.62;101763.09;4987671;28;98923;-72
2021/06/08 09:43:50;;;;;;;21.40;16.70;;;;;;;21.46;36.13;101760.31;5004878;28;100004;-72
2021/06/08 09:46:17;;;;;;;29.73;23.55;;;;;;;21.35;35.96;101757.69;5005886;28;98238;-73
2021/06/08 09:48:52;;;;;;;26.00;18.75;;;;;;;21.57;35.59;101753.00;4969727;28;97028;-72
2021/06/08 09:51:22;;;;;;;21.58;17.13;;;;;;;21.65;35.83;101738.47;4999979;28;98843;-73
2021/06/08 09:53:49;;;;;;;24.35;20.98;;;;;;;21.58;35.80;101742.16;4985437;28;100815;-72
2021/06/08 09:56:18;;;;;;;21.65;16.98;;;;;;;21.77;35.37;101746.53;5005754;28;97688;-72
2021/06/08 09:58:47;;;;;;;24.48;17.95;;;;;;;21.82;35.45;101750.09;4970234;28;97493;-72
2021/06/08 10:01:17;;;;;;;27.58;20.73;;;;;;;21.73;35.54;101742.03;4967130;28;97657;-72
2021/06/08 10:03:48;;;;;;;19.88;14.93;;;;;;;21.98;35.45;101744.50;4969599;28;98728;-72
2021/06/08 10:06:17;;;;;;;20.83;16.13;;;;;;;21.99;35.20;101738.16;4972391;28;96846;-73
2021/06/08 10:08:58;;;;;;;27.25;20.58;;;;;;;21.91;35.39;101744.56;4965345;28;96976;-73
2021/06/08 10:11:28;;;;;;;18.98;15.93;;;;;;;22.04;35.31;101744.41;4966054;28;99397;-72
2021/06/08 10:14:00;;;;;;;22.33;18.77;;;;;;;21.94;35.06;101744.53;5001086;28;97463;-75
2021/06/08 10:16:30;;;;;;;18.87;16.87;;;;;;;22.08;34.89;101743.47;4969461;28;97104;-72
2021/06/08 10:18:58;;;;;;;25.73;21.48;;;;;;;22.16;34.29;101738.88;4966707;28;97523;-72
2021/06/08 10:21:37;;;;;;;37.88;29.50;;;;;;;22.39;34.15;101742.22;5002787;28;99459;-72
2021/06/08 10:24:08;;;;;;;31.48;24.85;;;;;;;22.49;33.90;101736.66;4954574;28;99611;-72
2021/06/08 10:26:36;;;;;;;21.80;17.15;;;;;;;22.53;34.18;101732.13;4974135;28;97079;-73
2021/06/08 10:29:06;;;;;;;23.05;19.60;;;;;;;22.41;33.99;101729.56;4961557;28;97150;-72
2021/06/08 10:31:35;;;;;;;21.60;19.00;;;;;;;22.44;34.05;101724.97;4978919;28;99326;-72
2021/06/08 10:34:05;;;;;;;21.67;19.38;;;;;;;22.52;34.21;101727.59;4958037;28;99850;-72
2021/06/08 10:36:36;;;;;;;19.88;17.88;;;;;;;22.62;34.07;101723.84;4983947;28;98128;-73
2021/06/08 10:39:04;;;;;;;21.63;19.35;;;;;;;22.72;34.09;101721.00;4969683;28;97273;-73
2021/06/08 10:41:35;;;;;;;22.63;20.13;;;;;;;22.83;33.75;101723.56;4984654;28;99061;-73
2021/06/08 10:44:05;;;;;;;20.70;18.48;;;;;;;22.93;33.22;101714.34;4994794;28;101087;-72
2021/06/08 10:46:35;;;;;;;44.20;32.40;;;;;;;23.02;33.57;101713.34;4996012;28;96889;-73
2021/06/08 10:49:05;;;;;;;22.52;20.13;;;;;;;23.09;33.44;101706.88;4967292;28;97428;-72
2021/06/08 10:51:35;;;;;;;18.65;16.75;;;;;;;23.15;33.02;101706.81;4964515;28;101408;-72
2021/06/08 10:54:05;;;;;;;20.92;18.73;;;;;;;23.17;32.62;101705.81;4983933;28;98249;-72
2021/06/08 10:56:36;;;;;;;19.10;16.50;;;;;;;23.29;32.49;101707.47;4963826;28;98087;-73
2021/06/08 10:59:05;;;;;;;20.95;18.75;;;;;;;23.35;32.58;101700.13;4959367;28;97445;-72
2021/06/08 11:01:50;;;;;;;17.75;16.08;;;;;;;23.40;32.63;101694.63;4969016;28;97334;-72
2021/06/08 11:04:22;;;;;;;22.50;20.10;;;;;;;23.52;32.83;101695.28;4959294;28;98603;-72
2021/06/08 11:06:56;;;;;;;29.27;26.10;;;;;;;23.56;32.25;101697.03;4967131;28;98709;-72
2021/06/08 11:09:35;;;;;;;21.80;19.50;;;;;;;23.63;32.57;101697.81;4975675;28;97047;-72
2021/06/08 11:12:25;;;;;;;39.90;35.33;;;;;;;23.70;32.08;101694.97;4965315;28;97628;-72
2021/06/08 11:14:58;;;;;;;22.63;20.23;;;;;;;23.81;31.97;101690.22;4976686;28;98295;-72
2021/06/08 11:17:41;;;;;;;18.38;16.67;;;;;;;23.96;32.36;101691.75;4960480;28;97326;-72
2021/06/08 11:20:22;;;;;;;16.25;14.65;;;;;;;24.02;31.99;101690.75;4997270;28;98246;-72
2021/06/08 11:23:00;;;;;;;16.70;15.03;;;;;;;24.10;31.34;101688.78;4973219;28;97382;-72
2021/06/08 11:25:33;;;;;;;18.67;16.85;;;;;;;24.13;31.34;101688.72;4983067;28;98076;-74
2021/06/08 11:28:04;;;;;;;18.20;16.33;;;;;;;24.16;30.92;101691.34;5004683;28;96807;-73